Lowell, North Carolina
Current Conditions -  °F | °C
As of 9:10 AM on Wednesday 26 Nov 2014 (Local Time) from KAKH Reporting Station
Moderate Rain Moderate Rain  
Wind Chill: 39°   Ceiling: 700
Heat Index: 45°   Visibility: 3mi
Dew Point: 42°   Wind: 12mph
Humidity: 90%   Direction: 350°N
Pressure: 29.98"   Gusts: 17mph
Location:  35.27°N, 81.1°W
Report Text: KAKH 261410Z AUTO 35010G15KT 3SM RA BR BKN007 BKN011 OVC017 07/06 A2998 RMK AO2 CIG 006V010 P0001 T00720056
Loading
Personal Weather Stations






























Interactive Weather Map New forecast layout! Learn more

10-Day Weather Forecast

Advertisements
Track Severe Weather on mobile